createdAt,value
2023-01-17T00:01:44.556Z,1.60
2023-01-17T00:04:30.042Z,1.50
2023-01-17T00:07:14.416Z,1.43
2023-01-17T00:09:52.513Z,1.70
2023-01-17T00:12:19.780Z,1.77
2023-01-17T00:14:46.212Z,1.90
2023-01-17T00:17:12.619Z,1.80
2023-01-17T00:19:57.857Z,1.67
2023-01-17T00:22:44.204Z,1.37
2023-01-17T00:25:29.488Z,1.50
2023-01-17T00:27:55.402Z,1.43
2023-01-17T00:30:21.483Z,1.47
2023-01-17T00:32:47.357Z,1.80
2023-01-17T00:35:14.348Z,2.10
2023-01-17T00:37:40.225Z,2.60
2023-01-17T00:40:07.104Z,2.30
2023-01-17T00:42:32.940Z,2.10
2023-01-17T00:45:17.306Z,2.20
2023-01-17T00:48:02.665Z,2.00
2023-01-17T00:50:47.916Z,2.13
2023-01-17T00:53:32.418Z,2.40
2023-01-17T00:56:18.689Z,2.60
2023-01-17T00:59:03.108Z,2.60
2023-01-17T01:01:47.636Z,2.60
2023-01-17T01:04:32.375Z,2.30
2023-01-17T01:07:17.511Z,1.87
2023-01-17T01:10:01.913Z,1.90
2023-01-17T01:12:46.306Z,1.83
2023-01-17T01:15:30.595Z,1.80
2023-01-17T01:18:15.058Z,1.60
2023-01-17T01:20:59.357Z,1.63
2023-01-17T01:23:44.619Z,1.80
2023-01-17T01:26:28.862Z,1.90
2023-01-17T01:29:13.328Z,2.30
2023-01-17T01:31:57.702Z,2.37
2023-01-17T01:34:23.916Z,2.50
2023-01-17T01:36:50.034Z,3.23
2023-01-17T01:39:16.827Z,2.70
2023-01-17T01:41:42.978Z,3.03
2023-01-17T01:44:40.601Z,2.77
2023-01-17T01:47:08.034Z,3.00
2023-01-17T01:49:34.157Z,3.20
2023-01-17T01:52:01.432Z,2.93
2023-01-17T01:54:33.377Z,3.37
2023-01-17T01:57:02.585Z,3.20
2023-01-17T01:59:30.019Z,3.03
2023-01-17T02:01:57.370Z,3.00
2023-01-17T02:04:24.061Z,2.90
2023-01-17T02:06:53.636Z,2.87
2023-01-17T02:09:19.884Z,2.53
2023-01-17T02:11:46.947Z,2.27
2023-01-17T02:14:14.947Z,2.73
2023-01-17T02:16:50.375Z,2.33
2023-01-17T02:19:33.039Z,2.07
2023-01-17T02:22:12.024Z,2.10
2023-01-17T02:24:53.299Z,2.10
2023-01-17T02:27:24.712Z,2.23
2023-01-17T02:30:14.768Z,1.90
2023-01-17T02:32:51.202Z,2.40
2023-01-17T02:35:24.740Z,1.87
2023-01-17T02:37:57.670Z,2.20
2023-01-17T02:40:27.599Z,1.80
2023-01-17T02:42:57.035Z,1.90
2023-01-17T02:45:23.180Z,1.90
2023-01-17T02:47:49.951Z,2.03
2023-01-17T02:50:18.187Z,1.90
2023-01-17T02:52:51.654Z,1.80
2023-01-17T02:55:27.206Z,1.87
2023-01-17T02:58:07.167Z,2.03
2023-01-17T03:00:41.589Z,2.10
2023-01-17T03:03:15.054Z,2.10
2023-01-17T03:05:43.662Z,1.90
2023-01-17T03:08:10.570Z,2.57
2023-01-17T03:10:36.763Z,2.17
2023-01-17T03:13:09.627Z,2.13
2023-01-17T03:15:35.796Z,2.30
2023-01-17T03:18:04.977Z,2.00
2023-01-17T03:20:31.734Z,1.87
2023-01-17T03:22:57.877Z,1.70
2023-01-17T03:25:24.049Z,1.60
2023-01-17T03:27:50.186Z,1.77
2023-01-17T03:30:16.922Z,1.93
2023-01-17T03:32:43.062Z,1.90
2023-01-17T03:35:09.406Z,1.80
2023-01-17T03:37:36.289Z,2.33
2023-01-17T03:40:02.844Z,1.97
2023-01-17T03:42:28.987Z,2.37
2023-01-17T03:44:55.142Z,3.00
2023-01-17T03:47:21.283Z,2.13
2023-01-17T03:49:47.413Z,2.50
2023-01-17T03:52:13.641Z,2.30
2023-01-17T03:54:40.523Z,2.30
2023-01-17T03:57:07.751Z,2.10
2023-01-17T03:59:33.949Z,2.30
2023-01-17T04:02:00.204Z,1.93
2023-01-17T04:04:26.435Z,2.17
2023-01-17T04:06:52.576Z,2.07
2023-01-17T04:09:18.712Z,2.23
2023-01-17T04:11:49.960Z,1.97
2023-01-17T04:14:16.196Z,2.00
2023-01-17T04:16:42.499Z,2.47
2023-01-17T04:19:09.258Z,2.97
2023-01-17T04:21:35.452Z,3.27
2023-01-17T04:24:01.574Z,3.70
2023-01-17T04:26:27.747Z,3.80
2023-01-17T04:28:56.652Z,4.10
2023-01-17T04:31:22.812Z,4.60
2023-01-17T04:33:48.946Z,4.50
2023-01-17T04:36:15.079Z,5.03
2023-01-17T04:38:41.230Z,4.70
2023-01-17T04:41:07.493Z,4.53
2023-01-17T04:43:34.176Z,4.57
2023-01-17T04:46:00.961Z,4.07
2023-01-17T04:48:27.708Z,4.07
2023-01-17T04:50:59.064Z,4.17
2023-01-17T04:53:25.202Z,4.07
2023-01-17T04:55:51.495Z,4.30
2023-01-17T04:58:17.721Z,4.17
2023-01-17T05:00:43.868Z,4.40
2023-01-17T05:03:10.665Z,5.00
2023-01-17T05:05:36.773Z,5.33
2023-01-17T05:08:02.945Z,5.73
2023-01-17T05:10:29.220Z,5.57
2023-01-17T05:12:55.530Z,6.57
2023-01-17T05:15:21.980Z,6.90
2023-01-17T05:17:48.116Z,5.73
2023-01-17T05:20:15.278Z,6.47
2023-01-17T05:22:41.408Z,6.03
2023-01-17T05:25:08.185Z,6.43
2023-01-17T05:27:34.369Z,6.83
2023-01-17T05:30:00.486Z,6.97
2023-01-17T05:32:26.654Z,6.50
2023-01-17T05:34:52.821Z,7.13
2023-01-17T05:37:19.575Z,7.20
2023-01-17T05:39:45.689Z,8.00
2023-01-17T05:42:11.834Z,8.40
2023-01-17T05:44:38.034Z,7.90
2023-01-17T05:47:04.155Z,7.40
2023-01-17T05:49:30.315Z,7.00
2023-01-17T05:51:59.213Z,7.30
2023-01-17T05:54:26.011Z,8.00
2023-01-17T05:56:52.179Z,7.73
2023-01-17T05:59:25.598Z,7.33
2023-01-17T06:02:02.473Z,7.67
2023-01-17T06:04:28.618Z,7.23
2023-01-17T06:06:54.809Z,7.43
2023-01-17T06:09:20.953Z,7.03
2023-01-17T06:11:50.017Z,7.13
2023-01-17T06:14:16.146Z,6.50
2023-01-17T06:16:42.311Z,7.20
2023-01-17T06:19:08.808Z,6.83
2023-01-17T06:21:34.965Z,6.80
2023-01-17T06:24:03.932Z,7.10
2023-01-17T06:26:30.281Z,7.27
2023-01-17T06:29:01.067Z,6.77
2023-01-17T06:31:27.252Z,6.93
2023-01-17T06:33:54.461Z,7.00
2023-01-17T06:36:21.185Z,7.33
2023-01-17T06:38:54.966Z,7.37
2023-01-17T06:41:22.465Z,7.40
2023-01-17T06:43:49.016Z,6.90
2023-01-17T06:46:15.907Z,7.53
2023-01-17T06:48:42.808Z,7.47
2023-01-17T06:51:09.117Z,7.47
2023-01-17T06:53:36.486Z,7.13
2023-01-17T06:56:03.047Z,6.60
2023-01-17T06:58:29.261Z,7.07
2023-01-17T07:00:55.484Z,7.07
2023-01-17T07:03:23.554Z,7.70
2023-01-17T07:05:50.238Z,7.20
2023-01-17T07:08:17.089Z,7.73
2023-01-17T07:10:44.049Z,6.83
2023-01-17T07:13:10.627Z,7.00
2023-01-17T07:15:36.888Z,7.53
2023-01-17T07:18:03.928Z,7.20
2023-01-17T07:20:31.485Z,7.43
2023-01-17T07:22:57.686Z,7.67
2023-01-17T07:25:23.971Z,7.83
2023-01-17T07:27:52.985Z,6.83
2023-01-17T07:30:19.163Z,7.67
2023-01-17T07:32:50.528Z,7.77
2023-01-17T07:35:17.485Z,8.50
2023-01-17T07:37:47.821Z,7.77
2023-01-17T07:40:14.082Z,8.83
2023-01-17T07:42:40.200Z,8.77
2023-01-17T07:45:07.877Z,8.93
2023-01-17T07:47:34.061Z,8.43
2023-01-17T07:50:01.056Z,8.33
2023-01-17T07:52:27.386Z,8.80
2023-01-17T07:54:54.165Z,7.90
2023-01-17T07:57:20.379Z,7.90
2023-01-17T07:59:50.529Z,7.90
2023-01-17T08:02:18.100Z,8.57
2023-01-17T08:04:44.401Z,7.70
2023-01-17T08:07:10.549Z,8.07
2023-01-17T08:09:36.681Z,8.23
2023-01-17T08:12:04.180Z,7.80
2023-01-17T08:14:30.320Z,7.90
2023-01-17T08:17:03.570Z,7.50
2023-01-17T08:19:29.770Z,7.77
2023-01-17T08:21:55.980Z,7.90
2023-01-17T08:24:22.218Z,7.20
2023-01-17T08:26:48.419Z,7.70
2023-01-17T08:29:15.240Z,7.63
2023-01-17T08:31:41.558Z,7.23
2023-01-17T08:34:07.813Z,7.60
2023-01-17T08:36:33.958Z,7.20
2023-01-17T08:39:00.176Z,7.17
2023-01-17T08:41:27.026Z,9.93
2023-01-17T08:43:53.184Z,9.93
2023-01-17T08:46:20.006Z,10.53
2023-01-17T08:48:46.313Z,10.47
2023-01-17T08:51:12.921Z,8.93
2023-01-17T08:53:39.841Z,9.13
2023-01-17T08:56:06.674Z,8.27
2023-01-17T08:58:33.269Z,7.30
2023-01-17T09:01:00.711Z,6.53
2023-01-17T09:03:27.509Z,6.20
2023-01-17T09:06:00.500Z,5.97
2023-01-17T09:08:26.664Z,6.87
2023-01-17T09:10:53.363Z,6.83
2023-01-17T09:13:19.540Z,6.07
2023-01-17T09:15:45.814Z,6.57
2023-01-17T09:18:11.923Z,6.10
2023-01-17T09:20:38.739Z,6.00
2023-01-17T09:23:04.862Z,6.03
2023-01-17T09:25:31.036Z,6.10
2023-01-17T09:27:57.185Z,5.80
2023-01-17T09:30:23.427Z,6.67
2023-01-17T09:32:52.167Z,5.80
2023-01-17T09:35:18.541Z,6.17
2023-01-17T09:37:48.618Z,6.10
2023-01-17T09:40:17.996Z,5.57
2023-01-17T09:42:44.292Z,5.70
2023-01-17T09:45:12.086Z,4.57
2023-01-17T09:47:41.766Z,4.87
2023-01-17T09:50:19.991Z,4.90
2023-01-17T09:52:46.931Z,4.90
2023-01-17T09:55:14.414Z,4.43
2023-01-17T09:57:46.628Z,4.73
2023-01-17T10:00:26.251Z,5.03
2023-01-17T10:03:09.318Z,5.17
2023-01-17T10:05:49.980Z,5.40
2023-01-17T10:08:26.572Z,5.13
2023-01-17T10:11:04.213Z,5.17
2023-01-17T10:13:37.306Z,5.30
2023-01-17T10:16:15.402Z,5.33
2023-01-17T10:19:04.018Z,5.23
2023-01-17T10:21:38.154Z,5.17
2023-01-17T10:24:15.833Z,5.57
2023-01-17T10:26:43.203Z,5.47
2023-01-17T10:29:14.232Z,4.97
2023-01-17T10:31:43.290Z,5.10
2023-01-17T10:34:13.226Z,5.00
2023-01-17T10:36:42.769Z,4.50
2023-01-17T10:39:15.468Z,4.67
2023-01-17T10:41:43.620Z,4.97
2023-01-17T10:44:15.167Z,5.00
2023-01-17T10:46:45.208Z,4.67
2023-01-17T10:49:15.628Z,3.90
2023-01-17T10:52:11.835Z,3.77
2023-01-17T10:54:49.175Z,4.53
2023-01-17T10:57:19.093Z,5.17
2023-01-17T10:59:45.273Z,4.43
2023-01-17T11:02:19.088Z,4.53
2023-01-17T11:04:48.291Z,4.50
2023-01-17T11:07:16.498Z,3.70
2023-01-17T11:09:44.443Z,4.27
2023-01-17T11:12:19.775Z,4.10
2023-01-17T11:15:05.815Z,3.60
2023-01-17T11:17:32.709Z,4.03
2023-01-17T11:20:12.859Z,4.00
2023-01-17T11:22:39.250Z,4.83
2023-01-17T11:25:07.180Z,4.90
2023-01-17T11:27:35.324Z,4.83
2023-01-17T11:30:05.266Z,4.63
2023-01-17T11:32:32.529Z,5.60
2023-01-17T11:35:16.531Z,4.97
2023-01-17T11:38:03.729Z,4.17
2023-01-17T11:40:33.264Z,4.67
2023-01-17T11:43:18.095Z,4.23
2023-01-17T11:45:45.581Z,4.40
2023-01-17T11:48:14.579Z,4.97
2023-01-17T11:50:42.160Z,5.17
2023-01-17T11:53:17.619Z,4.73
2023-01-17T11:55:55.373Z,4.90
2023-01-17T11:58:23.234Z,5.00
2023-01-17T12:00:56.209Z,4.80
2023-01-17T12:03:31.813Z,4.67
2023-01-17T12:06:02.461Z,4.40
2023-01-17T12:08:44.112Z,4.87
2023-01-17T12:11:15.891Z,5.00
2023-01-17T12:14:00.829Z,5.30
2023-01-17T12:16:36.874Z,4.60
2023-01-17T12:19:17.912Z,4.60
2023-01-17T12:21:52.651Z,4.67
2023-01-17T12:24:50.457Z,4.67
2023-01-17T12:27:22.316Z,4.73
2023-01-17T12:29:58.159Z,4.77
2023-01-17T12:32:54.550Z,4.60
2023-01-17T12:35:25.074Z,4.50
2023-01-17T12:38:04.422Z,4.40
2023-01-17T12:40:34.307Z,4.87
2023-01-17T12:43:06.868Z,4.63
2023-01-17T12:45:37.771Z,4.30
2023-01-17T12:48:06.040Z,4.67
2023-01-17T12:50:36.513Z,4.70
2023-01-17T12:53:06.098Z,4.50
2023-01-17T12:55:38.953Z,4.83
2023-01-17T12:58:07.468Z,5.17
2023-01-17T13:00:37.553Z,4.70
2023-01-17T13:03:07.921Z,4.87
2023-01-17T13:05:37.495Z,4.20
2023-01-17T13:08:13.042Z,4.73
2023-01-17T13:10:41.165Z,3.67
2023-01-17T13:13:16.393Z,3.77
2023-01-17T13:15:42.795Z,3.93
2023-01-17T13:18:12.893Z,3.40
2023-01-17T13:20:53.174Z,2.87
2023-01-17T13:23:28.153Z,2.53
2023-01-17T13:25:56.229Z,2.93
2023-01-17T13:28:32.398Z,3.47
2023-01-17T13:31:18.841Z,3.13
2023-01-17T13:34:00.724Z,2.20
2023-01-17T13:36:40.347Z,2.23
2023-01-17T13:39:48.292Z,3.43
2023-01-17T13:42:22.727Z,2.87
2023-01-17T13:44:49.810Z,2.50
2023-01-17T13:47:39.984Z,2.53
2023-01-17T13:50:45.204Z,3.20
2023-01-17T13:53:54.518Z,2.30
2023-01-17T13:56:34.752Z,2.10
2023-01-17T13:59:09.158Z,1.67
2023-01-17T14:01:52.163Z,2.17
2023-01-17T14:04:19.163Z,1.87
2023-01-17T14:06:47.093Z,2.00
2023-01-17T14:09:19.091Z,1.70
2023-01-17T14:12:00.557Z,2.20
2023-01-17T14:14:48.423Z,1.53
2023-01-17T14:17:51.910Z,1.53
2023-01-17T14:20:34.252Z,1.50
2023-01-17T14:23:02.375Z,1.97
2023-01-17T14:25:29.603Z,1.70
2023-01-17T14:27:59.557Z,2.00
2023-01-17T14:30:26.985Z,2.10
2023-01-17T14:33:13.491Z,2.00
2023-01-17T14:35:49.290Z,1.93
2023-01-17T14:38:18.867Z,1.60
2023-01-17T14:40:49.739Z,1.97
2023-01-17T14:43:19.029Z,2.13
2023-01-17T14:45:45.620Z,2.10
2023-01-17T14:48:16.127Z,1.63
2023-01-17T14:50:43.530Z,3.20
2023-01-17T14:53:17.018Z,2.40
2023-01-17T14:55:52.060Z,2.27
2023-01-17T14:58:19.726Z,2.40
2023-01-17T15:00:48.464Z,2.20
2023-01-17T15:03:15.840Z,1.67
2023-01-17T15:05:45.022Z,2.17
2023-01-17T15:08:12.992Z,1.80
2023-01-17T15:10:46.567Z,1.90
2023-01-17T15:13:14.461Z,2.57
2023-01-17T15:15:41.450Z,2.83
2023-01-17T15:18:20.370Z,3.50
2023-01-17T15:20:59.750Z,3.17
2023-01-17T15:23:30.795Z,3.33
2023-01-17T15:25:57.325Z,3.63
2023-01-17T15:28:23.847Z,3.47
2023-01-17T15:31:05.320Z,2.60
2023-01-17T15:33:32.771Z,2.50
2023-01-17T15:36:00.411Z,3.00
2023-01-17T15:38:26.790Z,2.70
2023-01-17T15:40:52.985Z,2.80
2023-01-17T15:43:20.628Z,2.50
2023-01-17T15:45:54.609Z,2.20
2023-01-17T15:48:43.657Z,2.30
2023-01-17T15:51:11.304Z,2.33
2023-01-17T15:53:39.269Z,2.17
2023-01-17T15:56:25.982Z,2.90
2023-01-17T15:58:52.362Z,2.47
2023-01-17T16:01:24.241Z,2.27
2023-01-17T16:03:54.743Z,2.23
2023-01-17T16:06:38.572Z,2.27
2023-01-17T16:09:19.239Z,2.30
2023-01-17T16:11:45.415Z,2.10
2023-01-17T16:14:11.686Z,2.23
2023-01-17T16:16:38.034Z,2.67
2023-01-17T16:19:05.576Z,2.30
2023-01-17T16:21:32.628Z,2.50
2023-01-17T16:23:59.459Z,2.50
2023-01-17T16:26:26.856Z,2.10
2023-01-17T16:28:53.104Z,2.60
2023-01-17T16:31:19.518Z,2.97
2023-01-17T16:33:48.612Z,2.10
2023-01-17T16:36:16.563Z,2.23
2023-01-17T16:38:43.863Z,2.43
2023-01-17T16:41:12.302Z,2.73
2023-01-17T16:43:38.553Z,3.07
2023-01-17T16:46:08.093Z,2.50
2023-01-17T16:48:36.668Z,3.40
2023-01-17T16:51:05.233Z,4.53
2023-01-17T16:53:32.166Z,3.23
2023-01-17T16:56:05.444Z,2.73
2023-01-17T16:58:32.964Z,2.27
2023-01-17T17:00:59.441Z,2.27
2023-01-17T17:03:25.714Z,2.20
2023-01-17T17:05:56.615Z,2.17
2023-01-17T17:08:29.175Z,2.43
2023-01-17T17:11:06.661Z,2.87
2023-01-17T17:13:34.382Z,2.20
2023-01-17T17:16:00.758Z,2.40
2023-01-17T17:18:28.242Z,2.90
2023-01-17T17:20:54.374Z,3.77
2023-01-17T17:23:20.528Z,3.67
2023-01-17T17:25:54.802Z,3.67
2023-01-17T17:28:21.608Z,2.90
2023-01-17T17:30:47.800Z,3.23
2023-01-17T17:33:14.435Z,2.90
2023-01-17T17:35:40.626Z,2.87
2023-01-17T17:38:06.772Z,3.33
2023-01-17T17:40:33.971Z,2.70
2023-01-17T17:43:00.120Z,3.13
2023-01-17T17:45:26.965Z,2.93
2023-01-17T17:47:53.529Z,3.27
2023-01-17T17:50:19.918Z,3.70
2023-01-17T17:52:47.431Z,4.07
2023-01-17T17:55:18.225Z,7.87
2023-01-17T17:57:44.505Z,6.57
2023-01-17T18:00:12.568Z,5.60
2023-01-17T18:02:39.497Z,4.10
2023-01-17T18:05:06.540Z,3.03
2023-01-17T18:07:33.435Z,3.40
2023-01-17T18:09:59.551Z,6.73
2023-01-17T18:12:25.738Z,6.20
2023-01-17T18:14:51.923Z,5.50
2023-01-17T18:17:19.527Z,4.20
2023-01-17T18:19:46.384Z,4.33
2023-01-17T18:22:12.575Z,4.13
2023-01-17T18:24:38.937Z,4.17
2023-01-17T18:27:05.632Z,4.13
2023-01-17T18:29:31.836Z,4.53
2023-01-17T18:31:58.176Z,10.47
2023-01-17T18:34:28.342Z,14.03
2023-01-17T18:36:56.587Z,13.70
2023-01-17T18:39:24.494Z,13.10
2023-01-17T18:41:50.979Z,12.23
2023-01-17T18:44:21.544Z,11.47
2023-01-17T18:46:48.263Z,9.20
2023-01-17T18:49:15.626Z,7.90
2023-01-17T18:51:45.708Z,8.40
2023-01-17T18:54:12.573Z,7.37
2023-01-17T18:56:38.744Z,8.27
2023-01-17T18:59:06.277Z,7.00
2023-01-17T19:01:35.640Z,7.10
2023-01-17T19:04:03.797Z,8.17
2023-01-17T19:06:31.757Z,8.43
2023-01-17T19:08:58.272Z,8.93
2023-01-17T19:11:26.751Z,8.37
2023-01-17T19:13:53.058Z,8.13
2023-01-17T19:16:23.545Z,8.33
2023-01-17T19:18:50.117Z,8.27
2023-01-17T19:21:18.645Z,8.30
2023-01-17T19:23:45.309Z,8.50
2023-01-17T19:26:12.792Z,7.00
2023-01-17T19:28:41.231Z,7.10
2023-01-17T19:31:08.905Z,6.13
2023-01-17T19:33:37.203Z,7.37
2023-01-17T19:36:06.637Z,7.67
2023-01-17T19:38:34.272Z,7.57
2023-01-17T19:41:06.936Z,7.33
2023-01-17T19:43:33.140Z,7.50
2023-01-17T19:46:00.268Z,7.57
2023-01-17T19:48:26.825Z,9.97
2023-01-17T19:50:54.010Z,7.37
2023-01-17T19:53:20.500Z,6.40
2023-01-17T19:55:46.641Z,6.20
2023-01-17T19:58:13.256Z,5.73
2023-01-17T20:00:46.410Z,5.13
2023-01-17T20:03:13.670Z,4.90
2023-01-17T20:05:39.817Z,5.23
2023-01-17T20:08:05.983Z,5.03
2023-01-17T20:10:32.133Z,5.00
2023-01-17T20:12:58.320Z,4.80
2023-01-17T20:15:25.718Z,4.97
2023-01-17T20:17:52.185Z,4.77
2023-01-17T20:20:18.995Z,4.60
2023-01-17T20:22:45.310Z,5.00
2023-01-17T20:25:11.729Z,4.87
2023-01-17T20:27:39.589Z,5.13
2023-01-17T20:30:19.276Z,4.97
2023-01-17T20:32:46.099Z,5.30
2023-01-17T20:35:12.670Z,5.60
2023-01-17T20:37:39.472Z,5.50
2023-01-17T20:40:06.778Z,5.67
2023-01-17T20:42:35.479Z,6.07
2023-01-17T20:45:02.285Z,5.37
2023-01-17T20:47:28.885Z,4.93
2023-01-17T20:49:55.084Z,5.70
2023-01-17T20:52:21.256Z,6.37
2023-01-17T20:54:49.153Z,6.40
2023-01-17T20:57:15.374Z,6.47
2023-01-17T20:59:41.496Z,6.57
2023-01-17T21:02:09.889Z,5.93
2023-01-17T21:04:36.189Z,5.63
2023-01-17T21:07:02.331Z,6.10
2023-01-17T21:09:28.432Z,5.97
2023-01-17T21:12:00.175Z,6.27
2023-01-17T21:14:26.595Z,6.10
2023-01-17T21:16:52.770Z,6.27
2023-01-17T21:19:28.660Z,6.57
2023-01-17T21:21:55.436Z,5.83
2023-01-17T21:24:21.568Z,6.10
2023-01-17T21:26:50.529Z,5.90
2023-01-17T21:29:17.399Z,6.53
2023-01-17T21:31:44.361Z,6.77
2023-01-17T21:34:12.893Z,6.33
2023-01-17T21:36:40.543Z,6.30
2023-01-17T21:39:10.087Z,6.30
2023-01-17T21:41:38.538Z,6.30
2023-01-17T21:44:07.180Z,6.27
2023-01-17T21:46:35.773Z,6.83
2023-01-17T21:49:02.343Z,6.67
2023-01-17T21:52:02.084Z,5.73
2023-01-17T21:54:46.525Z,7.30
2023-01-17T21:57:32.348Z,6.60
2023-01-17T21:59:58.543Z,7.10
2023-01-17T22:02:25.415Z,6.53
2023-01-17T22:04:53.603Z,6.93
2023-01-17T22:07:19.777Z,6.70
2023-01-17T22:09:45.954Z,6.77
2023-01-17T22:12:12.137Z,6.90
2023-01-17T22:14:38.752Z,6.23
2023-01-17T22:17:04.916Z,6.87
2023-01-17T22:19:32.862Z,6.33
2023-01-17T22:21:59.017Z,6.67
2023-01-17T22:24:25.343Z,6.50
2023-01-17T22:26:51.471Z,6.13
2023-01-17T22:29:18.140Z,6.97
2023-01-17T22:31:44.802Z,7.17
2023-01-17T22:34:12.719Z,9.83
2023-01-17T22:36:39.683Z,8.37
2023-01-17T22:39:05.940Z,7.70
2023-01-17T22:41:34.321Z,6.83
2023-01-17T22:44:01.622Z,7.43
2023-01-17T22:46:29.339Z,7.73
2023-01-17T22:48:56.316Z,7.30
2023-01-17T22:51:23.333Z,7.87
2023-01-17T22:53:51.437Z,8.43
2023-01-17T22:56:19.542Z,7.90
2023-01-17T22:58:47.841Z,8.03
2023-01-17T23:01:16.331Z,7.87
2023-01-17T23:03:44.095Z,8.40
2023-01-17T23:06:11.820Z,8.57
2023-01-17T23:08:38.996Z,8.77
2023-01-17T23:11:36.592Z,9.63
2023-01-17T23:14:02.736Z,8.80
2023-01-17T23:16:47.407Z,8.57
2023-01-17T23:19:22.525Z,8.63
2023-01-17T23:22:07.611Z,8.07
2023-01-17T23:24:33.754Z,8.80
2023-01-17T23:27:18.673Z,7.73
2023-01-17T23:29:44.874Z,7.93
2023-01-17T23:32:11.083Z,8.77
2023-01-17T23:34:37.278Z,8.53
2023-01-17T23:37:03.460Z,8.73
2023-01-17T23:39:29.598Z,8.30
2023-01-17T23:42:13.913Z,7.63
2023-01-17T23:44:40.764Z,8.37
2023-01-17T23:47:06.911Z,9.37
2023-01-17T23:49:33.049Z,10.00
2023-01-17T23:51:59.206Z,8.93
2023-01-17T23:54:25.337Z,8.53
2023-01-17T23:56:51.547Z,8.60
2023-01-17T23:59:18.280Z,8.87
